sensor_id;sensor_type;location;lat;lon;timestamp;P1;durP1;ratioP1;P2;durP2;ratioP2
11255;SDS011;5685;52.384;13.420;2022-07-23T00:01:40;13.07;;;12.23;;
11255;SDS011;5685;52.384;13.420;2022-07-23T00:04:44;13.63;;;12.77;;
11255;SDS011;5685;52.384;13.420;2022-07-23T00:07:46;14.00;;;13.10;;
11255;SDS011;5685;52.384;13.420;2022-07-23T00:10:48;13.20;;;12.40;;
11255;SDS011;5685;52.384;13.420;2022-07-23T00:13:50;13.47;;;12.53;;
11255;SDS011;5685;52.384;13.420;2022-07-23T00:16:55;14.17;;;13.20;;
11255;SDS011;5685;52.384;13.420;2022-07-23T00:19:58;13.50;;;12.70;;
11255;SDS011;5685;52.384;13.420;2022-07-23T00:23:01;13.43;;;12.53;;
11255;SDS011;5685;52.384;13.420;2022-07-23T00:26:03;13.50;;;12.57;;
11255;SDS011;5685;52.384;13.420;2022-07-23T00:29:07;14.13;;;13.30;;
11255;SDS011;5685;52.384;13.420;2022-07-23T00:32:10;13.73;;;12.93;;
11255;SDS011;5685;52.384;13.420;2022-07-23T00:35:13;13.83;;;12.83;;
11255;SDS011;5685;52.384;13.420;2022-07-23T00:38:16;13.17;;;12.37;;
11255;SDS011;5685;52.384;13.420;2022-07-23T00:41:19;13.73;;;12.80;;
11255;SDS011;5685;52.384;13.420;2022-07-23T00:44:22;13.27;;;12.37;;
11255;SDS011;5685;52.384;13.420;2022-07-23T00:47:26;14.20;;;13.10;;
11255;SDS011;5685;52.384;13.420;2022-07-23T00:50:30;14.33;;;13.40;;
11255;SDS011;5685;52.384;13.420;2022-07-23T00:53:32;14.60;;;13.50;;
11255;SDS011;5685;52.384;13.420;2022-07-23T00:56:35;13.80;;;12.80;;
11255;SDS011;5685;52.384;13.420;2022-07-23T00:59:38;13.87;;;12.97;;
11255;SDS011;5685;52.384;13.420;2022-07-23T01:02:40;13.67;;;12.77;;
11255;SDS011;5685;52.384;13.420;2022-07-23T01:05:45;14.47;;;13.37;;
11255;SDS011;5685;52.384;13.420;2022-07-23T01:08:47;14.07;;;12.97;;
11255;SDS011;5685;52.384;13.420;2022-07-23T01:11:50;13.27;;;12.47;;
11255;SDS011;5685;52.384;13.420;2022-07-23T01:14:55;13.30;;;12.50;;
11255;SDS011;5685;52.384;13.420;2022-07-23T01:17:57;13.70;;;12.90;;
11255;SDS011;5685;52.384;13.420;2022-07-23T01:21:01;14.60;;;13.37;;
11255;SDS011;5685;52.384;13.420;2022-07-23T01:24:06;13.73;;;12.83;;
11255;SDS011;5685;52.384;13.420;2022-07-23T01:27:09;13.33;;;12.43;;
11255;SDS011;5685;52.384;13.420;2022-07-23T01:30:12;12.87;;;12.07;;
11255;SDS011;5685;52.384;13.420;2022-07-23T01:33:15;13.03;;;12.13;;
11255;SDS011;5685;52.384;13.420;2022-07-23T01:36:17;13.07;;;12.27;;
11255;SDS011;5685;52.384;13.420;2022-07-23T01:39:21;13.13;;;12.33;;
11255;SDS011;5685;52.384;13.420;2022-07-23T01:42:24;13.50;;;12.70;;
11255;SDS011;5685;52.384;13.420;2022-07-23T01:45:26;14.10;;;12.93;;
11255;SDS011;5685;52.384;13.420;2022-07-23T01:48:28;13.93;;;13.03;;
11255;SDS011;5685;52.384;13.420;2022-07-23T01:51:31;14.20;;;13.20;;
11255;SDS011;5685;52.384;13.420;2022-07-23T01:54:35;13.97;;;12.97;;
11255;SDS011;5685;52.384;13.420;2022-07-23T01:57:37;14.20;;;13.30;;
11255;SDS011;5685;52.384;13.420;2022-07-23T02:00:39;14.50;;;13.40;;
11255;SDS011;5685;52.384;13.420;2022-07-23T02:03:41;13.13;;;12.37;;
11255;SDS011;5685;52.384;13.420;2022-07-23T02:06:44;17.20;;;12.80;;
11255;SDS011;5685;52.384;13.420;2022-07-23T02:09:48;13.70;;;12.80;;
11255;SDS011;5685;52.384;13.420;2022-07-23T02:12:50;14.23;;;13.13;;
11255;SDS011;5685;52.384;13.420;2022-07-23T02:15:52;13.57;;;12.77;;
11255;SDS011;5685;52.384;13.420;2022-07-23T02:18:55;14.43;;;13.43;;
11255;SDS011;5685;52.384;13.420;2022-07-23T02:21:57;13.90;;;12.97;;
11255;SDS011;5685;52.384;13.420;2022-07-23T02:25:00;13.73;;;12.70;;
11255;SDS011;5685;52.384;13.420;2022-07-23T02:28:03;14.30;;;13.07;;
11255;SDS011;5685;52.384;13.420;2022-07-23T02:31:06;13.90;;;12.70;;
11255;SDS011;5685;52.384;13.420;2022-07-23T02:34:08;13.20;;;12.40;;
11255;SDS011;5685;52.384;13.420;2022-07-23T02:37:11;13.07;;;12.23;;
11255;SDS011;5685;52.384;13.420;2022-07-23T02:40:15;13.10;;;12.20;;
11255;SDS011;5685;52.384;13.420;2022-07-23T02:43:18;13.97;;;12.93;;
11255;SDS011;5685;52.384;13.420;2022-07-23T02:46:20;13.03;;;12.23;;
11255;SDS011;5685;52.384;13.420;2022-07-23T02:49:22;13.33;;;12.20;;
11255;SDS011;5685;52.384;13.420;2022-07-23T02:52:25;13.47;;;12.53;;
11255;SDS011;5685;52.384;13.420;2022-07-23T02:55:28;13.40;;;12.60;;
11255;SDS011;5685;52.384;13.420;2022-07-23T02:58:31;13.77;;;12.87;;
11255;SDS011;5685;52.384;13.420;2022-07-23T03:01:33;13.20;;;12.40;;
11255;SDS011;5685;52.384;13.420;2022-07-23T03:04:36;13.43;;;12.53;;
11255;SDS011;5685;52.384;13.420;2022-07-23T03:07:38;13.77;;;12.87;;
11255;SDS011;5685;52.384;13.420;2022-07-23T03:10:42;13.47;;;12.13;;
11255;SDS011;5685;52.384;13.420;2022-07-23T03:13:44;12.90;;;12.00;;
11255;SDS011;5685;52.384;13.420;2022-07-23T03:16:46;13.10;;;12.20;;
11255;SDS011;5685;52.384;13.420;2022-07-23T03:19:50;15.90;;;14.57;;
11255;SDS011;5685;52.384;13.420;2022-07-23T03:22:52;13.20;;;12.33;;
11255;SDS011;5685;52.384;13.420;2022-07-23T03:25:56;12.97;;;12.17;;
11255;SDS011;5685;52.384;13.420;2022-07-23T03:28:58;13.80;;;12.97;;
11255;SDS011;5685;52.384;13.420;2022-07-23T03:32:01;14.00;;;13.00;;
11255;SDS011;5685;52.384;13.420;2022-07-23T03:35:04;13.77;;;12.77;;
11255;SDS011;5685;52.384;13.420;2022-07-23T03:38:07;14.07;;;12.93;;
11255;SDS011;5685;52.384;13.420;2022-07-23T03:41:11;13.87;;;12.97;;
11255;SDS011;5685;52.384;13.420;2022-07-23T03:44:13;13.43;;;12.43;;
11255;SDS011;5685;52.384;13.420;2022-07-23T03:47:15;13.50;;;12.60;;
11255;SDS011;5685;52.384;13.420;2022-07-23T03:50:21;14.20;;;13.23;;
11255;SDS011;5685;52.384;13.420;2022-07-23T03:53:24;12.87;;;12.07;;
11255;SDS011;5685;52.384;13.420;2022-07-23T03:56:28;14.27;;;13.27;;
11255;SDS011;5685;52.384;13.420;2022-07-23T03:59:30;14.67;;;13.43;;
11255;SDS011;5685;52.384;13.420;2022-07-23T04:02:33;14.40;;;13.40;;
11255;SDS011;5685;52.384;13.420;2022-07-23T04:05:35;14.47;;;13.37;;
11255;SDS011;5685;52.384;13.420;2022-07-23T04:08:37;14.33;;;13.00;;
11255;SDS011;5685;52.384;13.420;2022-07-23T04:11:41;14.30;;;13.13;;
11255;SDS011;5685;52.384;13.420;2022-07-23T04:14:44;14.17;;;13.00;;
11255;SDS011;5685;52.384;13.420;2022-07-23T04:17:46;14.00;;;12.90;;
11255;SDS011;5685;52.384;13.420;2022-07-23T04:20:48;13.27;;;12.47;;
11255;SDS011;5685;52.384;13.420;2022-07-23T04:23:52;14.03;;;12.70;;
11255;SDS011;5685;52.384;13.420;2022-07-23T04:26:55;14.07;;;12.60;;
11255;SDS011;5685;52.384;13.420;2022-07-23T04:29:57;13.37;;;12.40;;
11255;SDS011;5685;52.384;13.420;2022-07-23T04:32:59;13.13;;;12.13;;
11255;SDS011;5685;52.384;13.420;2022-07-23T04:36:05;13.03;;;12.17;;
11255;SDS011;5685;52.384;13.420;2022-07-23T04:39:08;13.70;;;12.60;;
11255;SDS011;5685;52.384;13.420;2022-07-23T04:42:11;13.53;;;12.37;;
11255;SDS011;5685;52.384;13.420;2022-07-23T04:45:13;13.50;;;12.37;;
11255;SDS011;5685;52.384;13.420;2022-07-23T04:48:16;13.13;;;12.13;;
11255;SDS011;5685;52.384;13.420;2022-07-23T04:51:18;13.27;;;12.17;;
11255;SDS011;5685;52.384;13.420;2022-07-23T04:54:20;13.17;;;12.20;;
11255;SDS011;5685;52.384;13.420;2022-07-23T04:57:24;12.93;;;11.93;;
11255;SDS011;5685;52.384;13.420;2022-07-23T05:00:26;13.60;;;12.50;;
11255;SDS011;5685;52.384;13.420;2022-07-23T05:03:29;14.43;;;12.93;;
11255;SDS011;5685;52.384;13.420;2022-07-23T05:06:31;13.20;;;12.13;;
11255;SDS011;5685;52.384;13.420;2022-07-23T05:09:33;13.50;;;12.57;;
11255;SDS011;5685;52.384;13.420;2022-07-23T05:12:37;12.93;;;11.80;;
11255;SDS011;5685;52.384;13.420;2022-07-23T05:15:39;13.00;;;11.93;;
11255;SDS011;5685;52.384;13.420;2022-07-23T05:18:42;12.47;;;11.67;;
11255;SDS011;5685;52.384;13.420;2022-07-23T05:21:44;12.70;;;11.90;;
11255;SDS011;5685;52.384;13.420;2022-07-23T05:24:46;13.23;;;12.10;;
11255;SDS011;5685;52.384;13.420;2022-07-23T05:27:50;13.30;;;12.30;;
11255;SDS011;5685;52.384;13.420;2022-07-23T05:30:52;12.47;;;11.77;;
11255;SDS011;5685;52.384;13.420;2022-07-23T05:33:54;13.47;;;12.37;;
11255;SDS011;5685;52.384;13.420;2022-07-23T05:36:57;12.83;;;11.83;;
11255;SDS011;5685;52.384;13.420;2022-07-23T05:40:00;13.10;;;12.20;;
11255;SDS011;5685;52.384;13.420;2022-07-23T05:43:05;12.60;;;11.67;;
11255;SDS011;5685;52.384;13.420;2022-07-23T05:46:07;12.73;;;11.80;;
11255;SDS011;5685;52.384;13.420;2022-07-23T05:49:09;12.00;;;11.20;;
11255;SDS011;5685;52.384;13.420;2022-07-23T05:52:11;12.37;;;11.40;;
11255;SDS011;5685;52.384;13.420;2022-07-23T05:55:14;12.40;;;11.40;;
11255;SDS011;5685;52.384;13.420;2022-07-23T05:58:18;12.67;;;11.83;;
11255;SDS011;5685;52.384;13.420;2022-07-23T06:01:20;12.23;;;11.53;;
11255;SDS011;5685;52.384;13.420;2022-07-23T06:04:22;12.40;;;11.70;;
11255;SDS011;5685;52.384;13.420;2022-07-23T06:07:24;12.47;;;11.47;;
11255;SDS011;5685;52.384;13.420;2022-07-23T06:10:27;12.70;;;11.70;;
11255;SDS011;5685;52.384;13.420;2022-07-23T06:13:30;12.00;;;11.10;;
11255;SDS011;5685;52.384;13.420;2022-07-23T06:16:32;12.27;;;11.40;;
11255;SDS011;5685;52.384;13.420;2022-07-23T06:19:34;12.07;;;11.17;;
11255;SDS011;5685;52.384;13.420;2022-07-23T06:22:36;12.30;;;11.50;;
11255;SDS011;5685;52.384;13.420;2022-07-23T06:25:39;12.27;;;11.30;;
11255;SDS011;5685;52.384;13.420;2022-07-23T06:28:42;12.80;;;11.63;;
11255;SDS011;5685;52.384;13.420;2022-07-23T06:31:44;14.90;;;11.00;;
11255;SDS011;5685;52.384;13.420;2022-07-23T06:34:46;11.20;;;10.50;;
11255;SDS011;5685;52.384;13.420;2022-07-23T06:37:48;11.63;;;10.87;;
11255;SDS011;5685;52.384;13.420;2022-07-23T06:40:50;12.00;;;11.13;;
11255;SDS011;5685;52.384;13.420;2022-07-23T06:43:54;11.83;;;11.13;;
11255;SDS011;5685;52.384;13.420;2022-07-23T06:46:56;11.17;;;10.47;;
11255;SDS011;5685;52.384;13.420;2022-07-23T06:49:58;12.03;;;11.30;;
11255;SDS011;5685;52.384;13.420;2022-07-23T06:53:00;11.23;;;10.53;;
11255;SDS011;5685;52.384;13.420;2022-07-23T06:56:02;11.87;;;11.00;;
11255;SDS011;5685;52.384;13.420;2022-07-23T06:59:06;12.03;;;11.17;;
11255;SDS011;5685;52.384;13.420;2022-07-23T07:02:08;11.83;;;11.00;;
11255;SDS011;5685;52.384;13.420;2022-07-23T07:05:10;13.47;;;12.57;;
11255;SDS011;5685;52.384;13.420;2022-07-23T07:08:12;12.13;;;11.33;;
11255;SDS011;5685;52.384;13.420;2022-07-23T07:11:14;11.93;;;11.03;;
11255;SDS011;5685;52.384;13.420;2022-07-23T07:14:17;11.97;;;11.17;;
11255;SDS011;5685;52.384;13.420;2022-07-23T07:17:20;11.33;;;10.73;;
11255;SDS011;5685;52.384;13.420;2022-07-23T07:20:22;12.97;;;11.87;;
11255;SDS011;5685;52.384;13.420;2022-07-23T07:23:24;12.57;;;11.60;;
11255;SDS011;5685;52.384;13.420;2022-07-23T07:26:27;12.00;;;11.13;;
11255;SDS011;5685;52.384;13.420;2022-07-23T07:29:31;11.20;;;10.50;;
11255;SDS011;5685;52.384;13.420;2022-07-23T07:32:33;11.93;;;11.03;;
11255;SDS011;5685;52.384;13.420;2022-07-23T07:35:36;12.10;;;11.10;;
11255;SDS011;5685;52.384;13.420;2022-07-23T07:38:38;12.33;;;11.43;;
11255;SDS011;5685;52.384;13.420;2022-07-23T07:41:41;11.97;;;10.97;;
11255;SDS011;5685;52.384;13.420;2022-07-23T07:44:44;11.50;;;10.67;;
11255;SDS011;5685;52.384;13.420;2022-07-23T07:47:47;11.97;;;11.23;;
11255;SDS011;5685;52.384;13.420;2022-07-23T07:50:49;12.50;;;11.20;;
11255;SDS011;5685;52.384;13.420;2022-07-23T07:53:51;11.70;;;10.80;;
11255;SDS011;5685;52.384;13.420;2022-07-23T07:56:53;11.10;;;10.47;;
11255;SDS011;5685;52.384;13.420;2022-07-23T07:59:57;11.53;;;10.70;;
11255;SDS011;5685;52.384;13.420;2022-07-23T08:02:59;11.87;;;11.17;;
11255;SDS011;5685;52.384;13.420;2022-07-23T08:06:02;12.43;;;11.43;;
11255;SDS011;5685;52.384;13.420;2022-07-23T08:09:04;11.77;;;10.87;;
11255;SDS011;5685;52.384;13.420;2022-07-23T08:12:07;11.53;;;10.83;;
11255;SDS011;5685;52.384;13.420;2022-07-23T08:15:11;11.87;;;11.10;;
11255;SDS011;5685;52.384;13.420;2022-07-23T08:18:14;11.80;;;11.07;;
11255;SDS011;5685;52.384;13.420;2022-07-23T08:21:16;12.57;;;11.67;;
11255;SDS011;5685;52.384;13.420;2022-07-23T08:24:18;12.87;;;11.77;;
11255;SDS011;5685;52.384;13.420;2022-07-23T08:27:20;12.50;;;11.57;;
11255;SDS011;5685;52.384;13.420;2022-07-23T08:30:24;12.23;;;11.43;;
11255;SDS011;5685;52.384;13.420;2022-07-23T08:33:26;12.87;;;11.83;;
11255;SDS011;5685;52.384;13.420;2022-07-23T08:36:28;13.90;;;12.77;;
11255;SDS011;5685;52.384;13.420;2022-07-23T08:39:32;13.83;;;12.60;;
11255;SDS011;5685;52.384;13.420;2022-07-23T08:42:34;13.10;;;12.10;;
11255;SDS011;5685;52.384;13.420;2022-07-23T08:45:39;14.00;;;12.70;;
11255;SDS011;5685;52.384;13.420;2022-07-23T08:48:43;13.50;;;12.30;;
11255;SDS011;5685;52.384;13.420;2022-07-23T08:51:48;14.50;;;13.23;;
11255;SDS011;5685;52.384;13.420;2022-07-23T08:54:51;14.10;;;13.03;;
11255;SDS011;5685;52.384;13.420;2022-07-23T08:57:53;13.90;;;12.80;;
11255;SDS011;5685;52.384;13.420;2022-07-23T09:00:57;13.93;;;12.90;;
11255;SDS011;5685;52.384;13.420;2022-07-23T09:04:00;13.20;;;12.37;;
11255;SDS011;5685;52.384;13.420;2022-07-23T09:07:03;13.43;;;12.27;;
11255;SDS011;5685;52.384;13.420;2022-07-23T09:10:07;13.43;;;12.43;;
11255;SDS011;5685;52.384;13.420;2022-07-23T09:13:25;12.53;;;11.63;;
11255;SDS011;5685;52.384;13.420;2022-07-23T09:16:32;13.13;;;12.00;;
11255;SDS011;5685;52.384;13.420;2022-07-23T09:19:34;13.77;;;12.53;;
11255;SDS011;5685;52.384;13.420;2022-07-23T09:22:36;13.30;;;12.33;;
11255;SDS011;5685;52.384;13.420;2022-07-23T09:25:39;13.43;;;12.30;;
11255;SDS011;5685;52.384;13.420;2022-07-23T09:28:47;13.47;;;12.30;;
11255;SDS011;5685;52.384;13.420;2022-07-23T09:31:55;13.57;;;12.67;;
11255;SDS011;5685;52.384;13.420;2022-07-23T09:34:59;14.70;;;13.40;;
11255;SDS011;5685;52.384;13.420;2022-07-23T09:38:02;13.97;;;12.87;;
11255;SDS011;5685;52.384;13.420;2022-07-23T09:41:05;14.53;;;13.13;;
11255;SDS011;5685;52.384;13.420;2022-07-23T09:44:09;14.50;;;13.20;;
11255;SDS011;5685;52.384;13.420;2022-07-23T09:47:15;12.67;;;11.73;;
11255;SDS011;5685;52.384;13.420;2022-07-23T09:50:19;12.63;;;11.57;;
11255;SDS011;5685;52.384;13.420;2022-07-23T09:53:23;13.30;;;11.80;;
11255;SDS011;5685;52.384;13.420;2022-07-23T09:56:27;13.77;;;12.50;;
11255;SDS011;5685;52.384;13.420;2022-07-23T09:59:30;13.53;;;12.33;;
11255;SDS011;5685;52.384;13.420;2022-07-23T10:02:36;13.83;;;12.77;;
11255;SDS011;5685;52.384;13.420;2022-07-23T10:05:40;13.80;;;12.47;;
11255;SDS011;5685;52.384;13.420;2022-07-23T10:08:44;13.23;;;12.10;;
11255;SDS011;5685;52.384;13.420;2022-07-23T10:11:49;13.20;;;12.10;;
11255;SDS011;5685;52.384;13.420;2022-07-23T10:14:55;13.10;;;12.00;;
11255;SDS011;5685;52.384;13.420;2022-07-23T10:18:01;13.87;;;12.50;;
11255;SDS011;5685;52.384;13.420;2022-07-23T10:21:05;13.30;;;12.40;;
11255;SDS011;5685;52.384;13.420;2022-07-23T10:24:12;14.73;;;13.53;;
11255;SDS011;5685;52.384;13.420;2022-07-23T10:31:06;12.60;;;11.80;;
11255;SDS011;5685;52.384;13.420;2022-07-23T10:34:21;13.20;;;12.37;;
11255;SDS011;5685;52.384;13.420;2022-07-23T10:37:36;12.97;;;12.10;;
11255;SDS011;5685;52.384;13.420;2022-07-23T10:40:52;12.90;;;12.00;;
11255;SDS011;5685;52.384;13.420;2022-07-23T10:44:05;13.17;;;12.27;;
11255;SDS011;5685;52.384;13.420;2022-07-23T10:47:12;13.00;;;12.00;;
11255;SDS011;5685;52.384;13.420;2022-07-23T10:50:45;12.63;;;11.57;;
11255;SDS011;5685;52.384;13.420;2022-07-23T10:54:10;12.77;;;11.97;;
11255;SDS011;5685;52.384;13.420;2022-07-23T10:57:23;13.03;;;12.03;;
11255;SDS011;5685;52.384;13.420;2022-07-23T11:00:27;13.43;;;12.20;;
11255;SDS011;5685;52.384;13.420;2022-07-23T11:03:31;13.53;;;12.03;;
11255;SDS011;5685;52.384;13.420;2022-07-23T11:13:39;13.57;;;12.67;;
11255;SDS011;5685;52.384;13.420;2022-07-23T11:16:46;12.67;;;11.73;;
11255;SDS011;5685;52.384;13.420;2022-07-23T11:23:23;12.60;;;11.70;;
11255;SDS011;5685;52.384;13.420;2022-07-23T11:27:00;13.47;;;12.50;;
11255;SDS011;5685;52.384;13.420;2022-07-23T11:30:04;12.87;;;11.97;;
11255;SDS011;5685;52.384;13.420;2022-07-23T11:33:19;13.43;;;12.50;;
11255;SDS011;5685;52.384;13.420;2022-07-23T11:36:22;12.10;;;11.40;;
11255;SDS011;5685;52.384;13.420;2022-07-23T11:39:27;12.10;;;11.30;;
11255;SDS011;5685;52.384;13.420;2022-07-23T11:42:31;12.73;;;11.93;;
11255;SDS011;5685;52.384;13.420;2022-07-23T11:45:34;13.40;;;12.33;;
11255;SDS011;5685;52.384;13.420;2022-07-23T11:48:39;11.93;;;11.20;;
11255;SDS011;5685;52.384;13.420;2022-07-23T11:51:41;12.07;;;11.17;;
11255;SDS011;5685;52.384;13.420;2022-07-23T11:54:48;12.50;;;11.50;;
11255;SDS011;5685;52.384;13.420;2022-07-23T11:57:54;12.80;;;12.00;;
11255;SDS011;5685;52.384;13.420;2022-07-23T12:00:57;12.37;;;11.60;;
11255;SDS011;5685;52.384;13.420;2022-07-23T12:03:59;13.23;;;12.13;;
11255;SDS011;5685;52.384;13.420;2022-07-23T12:07:01;12.90;;;11.87;;
11255;SDS011;5685;52.384;13.420;2022-07-23T12:10:09;12.70;;;11.93;;
11255;SDS011;5685;52.384;13.420;2022-07-23T12:13:15;12.93;;;11.93;;
11255;SDS011;5685;52.384;13.420;2022-07-23T12:16:20;12.17;;;11.40;;
11255;SDS011;5685;52.384;13.420;2022-07-23T12:19:22;13.07;;;12.10;;
11255;SDS011;5685;52.384;13.420;2022-07-23T12:22:25;14.07;;;12.90;;
11255;SDS011;5685;52.384;13.420;2022-07-23T12:25:37;12.37;;;11.47;;
11255;SDS011;5685;52.384;13.420;2022-07-23T12:28:41;13.57;;;12.57;;
11255;SDS011;5685;52.384;13.420;2022-07-23T12:31:45;13.33;;;12.40;;
11255;SDS011;5685;52.384;13.420;2022-07-23T12:34:48;12.90;;;12.00;;
11255;SDS011;5685;52.384;13.420;2022-07-23T12:37:52;12.13;;;11.33;;
11255;SDS011;5685;52.384;13.420;2022-07-23T12:41:04;12.20;;;11.50;;
11255;SDS011;5685;52.384;13.420;2022-07-23T12:44:13;13.47;;;12.37;;
11255;SDS011;5685;52.384;13.420;2022-07-23T12:47:16;13.47;;;12.37;;
11255;SDS011;5685;52.384;13.420;2022-07-23T12:50:31;11.60;;;10.90;;
11255;SDS011;5685;52.384;13.420;2022-07-23T12:53:37;13.40;;;12.43;;
11255;SDS011;5685;52.384;13.420;2022-07-23T12:56:45;13.27;;;12.17;;
11255;SDS011;5685;52.384;13.420;2022-07-23T12:59:47;13.57;;;12.57;;
11255;SDS011;5685;52.384;13.420;2022-07-23T13:02:49;13.13;;;12.33;;
11255;SDS011;5685;52.384;13.420;2022-07-23T13:05:52;13.37;;;12.47;;
11255;SDS011;5685;52.384;13.420;2022-07-23T13:08:54;13.70;;;12.80;;
11255;SDS011;5685;52.384;13.420;2022-07-23T13:11:58;13.27;;;12.27;;
11255;SDS011;5685;52.384;13.420;2022-07-23T13:15:01;14.00;;;13.00;;
11255;SDS011;5685;52.384;13.420;2022-07-23T13:18:04;14.40;;;13.30;;
11255;SDS011;5685;52.384;13.420;2022-07-23T13:21:06;13.57;;;12.57;;
11255;SDS011;5685;52.384;13.420;2022-07-23T13:24:10;13.60;;;12.60;;
11255;SDS011;5685;52.384;13.420;2022-07-23T13:27:15;12.83;;;12.03;;
11255;SDS011;5685;52.384;13.420;2022-07-23T13:30:17;13.13;;;12.23;;
11255;SDS011;5685;52.384;13.420;2022-07-23T13:33:24;14.07;;;13.03;;
11255;SDS011;5685;52.384;13.420;2022-07-23T13:36:26;13.33;;;12.37;;
11255;SDS011;5685;52.384;13.420;2022-07-23T13:39:29;12.90;;;12.00;;
11255;SDS011;5685;52.384;13.420;2022-07-23T13:42:32;13.87;;;12.80;;
11255;SDS011;5685;52.384;13.420;2022-07-23T13:45:35;13.10;;;12.20;;
11255;SDS011;5685;52.384;13.420;2022-07-23T13:48:38;13.23;;;12.23;;
11255;SDS011;5685;52.384;13.420;2022-07-23T13:51:41;13.30;;;12.40;;
11255;SDS011;5685;52.384;13.420;2022-07-23T13:54:43;13.13;;;12.13;;
11255;SDS011;5685;52.384;13.420;2022-07-23T13:57:47;13.20;;;12.30;;
11255;SDS011;5685;52.384;13.420;2022-07-23T14:00:50;12.67;;;11.77;;
11255;SDS011;5685;52.384;13.420;2022-07-23T14:03:54;13.33;;;12.63;;
11255;SDS011;5685;52.384;13.420;2022-07-23T14:06:56;13.70;;;12.60;;
11255;SDS011;5685;52.384;13.420;2022-07-23T14:09:59;13.87;;;12.57;;
11255;SDS011;5685;52.384;13.420;2022-07-23T14:13:03;13.63;;;12.73;;
11255;SDS011;5685;52.384;13.420;2022-07-23T14:16:05;13.53;;;12.47;;
11255;SDS011;5685;52.384;13.420;2022-07-23T14:19:08;13.40;;;12.50;;
11255;SDS011;5685;52.384;13.420;2022-07-23T14:22:11;13.10;;;12.30;;
11255;SDS011;5685;52.384;13.420;2022-07-23T14:25:13;12.53;;;11.43;;
11255;SDS011;5685;52.384;13.420;2022-07-23T14:28:16;12.87;;;11.87;;
11255;SDS011;5685;52.384;13.420;2022-07-23T14:31:18;13.30;;;12.33;;
11255;SDS011;5685;52.384;13.420;2022-07-23T14:34:20;12.20;;;11.33;;
11255;SDS011;5685;52.384;13.420;2022-07-23T14:37:22;12.70;;;11.90;;
11255;SDS011;5685;52.384;13.420;2022-07-23T14:40:25;13.27;;;12.17;;
11255;SDS011;5685;52.384;13.420;2022-07-23T14:43:28;12.30;;;11.50;;
11255;SDS011;5685;52.384;13.420;2022-07-23T14:46:30;13.27;;;12.30;;
11255;SDS011;5685;52.384;13.420;2022-07-23T14:49:32;12.50;;;11.70;;
11255;SDS011;5685;52.384;13.420;2022-07-23T14:52:34;12.47;;;11.73;;
11255;SDS011;5685;52.384;13.420;2022-07-23T14:55:36;12.33;;;11.53;;
11255;SDS011;5685;52.384;13.420;2022-07-23T14:58:40;12.90;;;12.00;;
11255;SDS011;5685;52.384;13.420;2022-07-23T15:01:43;12.80;;;11.90;;
11255;SDS011;5685;52.384;13.420;2022-07-23T15:04:46;11.63;;;11.00;;
11255;SDS011;5685;52.384;13.420;2022-07-23T15:07:48;12.43;;;11.70;;
11255;SDS011;5685;52.384;13.420;2022-07-23T15:10:51;12.20;;;11.30;;
11255;SDS011;5685;52.384;13.420;2022-07-23T15:13:55;12.40;;;11.60;;
11255;SDS011;5685;52.384;13.420;2022-07-23T15:16:57;12.27;;;11.57;;
11255;SDS011;5685;52.384;13.420;2022-07-23T15:19:59;12.77;;;11.87;;
11255;SDS011;5685;52.384;13.420;2022-07-23T15:23:01;12.07;;;11.27;;
11255;SDS011;5685;52.384;13.420;2022-07-23T15:26:04;12.33;;;11.33;;
11255;SDS011;5685;52.384;13.420;2022-07-23T15:29:08;12.43;;;11.73;;
11255;SDS011;5685;52.384;13.420;2022-07-23T15:32:10;12.87;;;11.83;;
11255;SDS011;5685;52.384;13.420;2022-07-23T15:35:12;12.00;;;11.20;;
11255;SDS011;5685;52.384;13.420;2022-07-23T15:38:15;12.50;;;11.60;;
11255;SDS011;5685;52.384;13.420;2022-07-23T15:41:17;11.80;;;11.10;;
11255;SDS011;5685;52.384;13.420;2022-07-23T15:44:21;12.37;;;11.20;;
11255;SDS011;5685;52.384;13.420;2022-07-23T15:47:23;11.87;;;11.17;;
11255;SDS011;5685;52.384;13.420;2022-07-23T15:50:25;12.07;;;11.27;;
11255;SDS011;5685;52.384;13.420;2022-07-23T15:53:28;12.20;;;11.30;;
11255;SDS011;5685;52.384;13.420;2022-07-23T15:56:30;12.53;;;11.53;;
11255;SDS011;5685;52.384;13.420;2022-07-23T15:59:34;11.87;;;11.10;;
11255;SDS011;5685;52.384;13.420;2022-07-23T16:02:36;11.67;;;10.87;;
11255;SDS011;5685;52.384;13.420;2022-07-23T16:05:39;12.37;;;11.57;;
11255;SDS011;5685;52.384;13.420;2022-07-23T16:08:42;11.70;;;11.00;;
11255;SDS011;5685;52.384;13.420;2022-07-23T16:11:45;11.93;;;11.13;;
11255;SDS011;5685;52.384;13.420;2022-07-23T16:14:49;12.43;;;11.33;;
11255;SDS011;5685;52.384;13.420;2022-07-23T16:17:51;11.80;;;11.13;;
11255;SDS011;5685;52.384;13.420;2022-07-23T16:20:55;11.70;;;10.83;;
11255;SDS011;5685;52.384;13.420;2022-07-23T16:23:58;11.43;;;10.83;;
11255;SDS011;5685;52.384;13.420;2022-07-23T16:27:00;12.27;;;11.30;;
11255;SDS011;5685;52.384;13.420;2022-07-23T16:30:04;12.10;;;11.40;;
11255;SDS011;5685;52.384;13.420;2022-07-23T16:33:08;14.53;;;13.00;;
11255;SDS011;5685;52.384;13.420;2022-07-23T16:36:11;16.60;;;14.17;;
11255;SDS011;5685;52.384;13.420;2022-07-23T16:39:13;17.73;;;13.93;;
11255;SDS011;5685;52.384;13.420;2022-07-23T16:42:15;16.23;;;13.50;;
11255;SDS011;5685;52.384;13.420;2022-07-23T16:45:18;21.57;;;14.97;;
11255;SDS011;5685;52.384;13.420;2022-07-23T16:48:20;15.40;;;13.57;;
11255;SDS011;5685;52.384;13.420;2022-07-23T16:51:23;21.27;;;13.57;;
11255;SDS011;5685;52.384;13.420;2022-07-23T16:54:25;16.73;;;13.60;;
11255;SDS011;5685;52.384;13.420;2022-07-23T16:57:27;13.83;;;12.73;;
11255;SDS011;5685;52.384;13.420;2022-07-23T17:00:31;18.97;;;14.33;;
11255;SDS011;5685;52.384;13.420;2022-07-23T17:03:33;39.37;;;20.73;;
11255;SDS011;5685;52.384;13.420;2022-07-23T17:06:36;46.83;;;21.17;;
11255;SDS011;5685;52.384;13.420;2022-07-23T17:09:38;19.33;;;14.17;;
11255;SDS011;5685;52.384;13.420;2022-07-23T17:12:40;13.30;;;12.03;;
11255;SDS011;5685;52.384;13.420;2022-07-23T17:15:44;12.17;;;11.27;;
11255;SDS011;5685;52.384;13.420;2022-07-23T17:18:46;12.00;;;10.93;;
11255;SDS011;5685;52.384;13.420;2022-07-23T17:21:48;14.40;;;12.80;;
11255;SDS011;5685;52.384;13.420;2022-07-23T17:24:50;12.67;;;11.33;;
11255;SDS011;5685;52.384;13.420;2022-07-23T17:27:52;12.30;;;11.37;;
11255;SDS011;5685;52.384;13.420;2022-07-23T17:30:56;12.87;;;11.93;;
11255;SDS011;5685;52.384;13.420;2022-07-23T17:33:58;11.67;;;10.97;;
11255;SDS011;5685;52.384;13.420;2022-07-23T17:37:01;12.20;;;11.37;;
11255;SDS011;5685;52.384;13.420;2022-07-23T17:40:03;11.80;;;11.10;;
11255;SDS011;5685;52.384;13.420;2022-07-23T17:43:07;12.10;;;11.20;;
11255;SDS011;5685;52.384;13.420;2022-07-23T17:46:11;11.20;;;10.60;;
11255;SDS011;5685;52.384;13.420;2022-07-23T17:49:14;11.83;;;11.03;;
11255;SDS011;5685;52.384;13.420;2022-07-23T17:52:16;11.77;;;10.97;;
11255;SDS011;5685;52.384;13.420;2022-07-23T17:55:18;11.33;;;10.73;;
11255;SDS011;5685;52.384;13.420;2022-07-23T17:58:22;11.23;;;10.53;;
11255;SDS011;5685;52.384;13.420;2022-07-23T18:01:25;11.10;;;10.60;;
11255;SDS011;5685;52.384;13.420;2022-07-23T18:04:29;11.27;;;10.57;;
11255;SDS011;5685;52.384;13.420;2022-07-23T18:07:31;11.73;;;10.77;;